sensor_id;sensor_type;location;lat;lon;timestamp;pressure;altitude;pressure_sealevel;temperature;humidity
43934;BME280;59081;42.706;23.306;2023-04-06T00:01:16;94769.19;;;-2.79;84.65
43934;BME280;59081;42.706;23.306;2023-04-06T00:03:50;94968.16;;;-1.44;84.18
43934;BME280;59081;42.706;23.306;2023-04-06T00:06:33;94960.34;;;-1.49;83.98
43934;BME280;59081;42.706;23.306;2023-04-06T00:09:25;94708.00;;;-3.01;82.93
43934;BME280;59081;42.706;23.306;2023-04-06T00:12:20;95009.44;;;-0.84;81.67
43934;BME280;59081;42.706;23.306;2023-04-06T00:14:56;94738.41;;;-2.74;82.17
43934;BME280;59081;42.706;23.306;2023-04-06T00:17:33;94914.53;;;-1.68;83.05
43934;BME280;59081;42.706;23.306;2023-04-06T00:20:11;94915.28;;;-1.71;83.22
43934;BME280;59081;42.706;23.306;2023-04-06T00:22:58;94999.25;;;-0.97;82.58
43934;BME280;59081;42.706;23.306;2023-04-06T00:25:27;94971.63;;;-1.14;82.59
43934;BME280;59081;42.706;23.306;2023-04-06T00:28:01;94721.97;;;-2.92;82.41
43934;BME280;59081;42.706;23.306;2023-04-06T00:30:44;94712.50;;;-2.83;82.79
43934;BME280;59081;42.706;23.306;2023-04-06T00:33:16;94888.19;;;-1.79;83.51
43934;BME280;59081;42.706;23.306;2023-04-06T00:36:13;94864.72;;;-1.74;83.20
43934;BME280;59081;42.706;23.306;2023-04-06T00:38:46;94899.41;;;-1.47;82.73
43934;BME280;59081;42.706;23.306;2023-04-06T00:41:35;94985.66;;;-1.04;82.93
43934;BME280;59081;42.706;23.306;2023-04-06T00:44:11;94767.28;;;-2.75;84.20
43934;BME280;59081;42.706;23.306;2023-04-06T00:46:42;94666.47;;;-3.23;84.53
43934;BME280;59081;42.706;23.306;2023-04-06T00:49:31;94753.00;;;-2.53;83.37
43934;BME280;59081;42.706;23.306;2023-04-06T00:52:00;94670.22;;;-3.05;82.96
43934;BME280;59081;42.706;23.306;2023-04-06T00:54:38;94977.94;;;-1.02;83.50
43934;BME280;59081;42.706;23.306;2023-04-06T00:57:12;94920.28;;;-1.44;83.40
43934;BME280;59081;42.706;23.306;2023-04-06T00:59:47;94696.66;;;-2.88;83.71
43934;BME280;59081;42.706;23.306;2023-04-06T01:02:25;94703.13;;;-2.66;83.14
43934;BME280;59081;42.706;23.306;2023-04-06T01:05:03;94973.50;;;-0.88;82.80
43934;BME280;59081;42.706;23.306;2023-04-06T01:07:49;94849.75;;;-1.68;82.65
43934;BME280;59081;42.706;23.306;2023-04-06T01:10:36;94674.66;;;-2.90;82.88
43934;BME280;59081;42.706;23.306;2023-04-06T01:13:05;94740.53;;;-2.34;82.49
43934;BME280;59081;42.706;23.306;2023-04-06T01:15:37;94713.06;;;-2.43;82.04
43934;BME280;59081;42.706;23.306;2023-04-06T01:18:15;94982.91;;;-0.75;83.46
43934;BME280;59081;42.706;23.306;2023-04-06T01:20:48;94845.03;;;-1.75;83.55
43934;BME280;59081;42.706;23.306;2023-04-06T01:23:32;94971.63;;;-0.80;84.07
43934;BME280;59081;42.706;23.306;2023-04-06T01:26:19;94978.66;;;-0.76;84.10
43934;BME280;59081;42.706;23.306;2023-04-06T01:31:27;94962.88;;;-0.70;83.83
43934;BME280;59081;42.706;23.306;2023-04-06T01:36:33;94664.84;;;-2.75;84.15
43934;BME280;59081;42.706;23.306;2023-04-06T01:41:43;94832.41;;;-1.34;83.82
43934;BME280;59081;42.706;23.306;2023-04-06T01:44:27;94679.88;;;-2.48;83.75
43934;BME280;59081;42.706;23.306;2023-04-06T01:47:21;94699.66;;;-2.36;85.58
43934;BME280;59081;42.706;23.306;2023-04-06T01:59:18;94688.97;;;-2.29;84.84
43934;BME280;59081;42.706;23.306;2023-04-06T02:02:20;94936.97;;;-0.71;86.84
43934;BME280;59081;42.706;23.306;2023-04-06T02:05:03;94875.94;;;-1.09;87.45
43934;BME280;59081;42.706;23.306;2023-04-06T02:07:51;94935.97;;;-0.56;87.08
43934;BME280;59081;42.706;23.306;2023-04-06T02:10:44;94879.47;;;-1.01;86.83
43934;BME280;59081;42.706;23.306;2023-04-06T02:16:24;94940.47;;;-0.71;86.42
43934;BME280;59081;42.706;23.306;2023-04-06T02:19:12;94751.94;;;-1.85;86.65
43934;BME280;59081;42.706;23.306;2023-04-06T02:21:50;94740.09;;;-1.77;86.48
43934;BME280;59081;42.706;23.306;2023-04-06T02:24:23;94700.03;;;-2.08;85.71
43934;BME280;59081;42.706;23.306;2023-04-06T02:27:20;94948.28;;;-0.62;86.31
43934;BME280;59081;42.706;23.306;2023-04-06T02:30:09;94633.66;;;-2.76;86.83
43934;BME280;59081;42.706;23.306;2023-04-06T02:32:50;94838.84;;;-1.09;86.54
43934;BME280;59081;42.706;23.306;2023-04-06T02:35:21;94797.53;;;-1.46;85.49
43934;BME280;59081;42.706;23.306;2023-04-06T02:38:00;94662.25;;;-2.38;85.74
43934;BME280;59081;42.706;23.306;2023-04-06T02:41:04;94936.22;;;-0.68;86.24
43934;BME280;59081;42.706;23.306;2023-04-06T02:43:36;94867.19;;;-0.95;85.21
43934;BME280;59081;42.706;23.306;2023-04-06T02:46:26;94938.44;;;-0.40;85.13
43934;BME280;59081;42.706;23.306;2023-04-06T02:48:58;94771.94;;;-1.59;84.71
43934;BME280;59081;42.706;23.306;2023-04-06T02:51:38;94790.56;;;-1.47;84.49
43934;BME280;59081;42.706;23.306;2023-04-06T02:54:22;94696.56;;;-2.05;84.17
43934;BME280;59081;42.706;23.306;2023-04-06T02:56:54;94621.09;;;-2.65;84.18
43934;BME280;59081;42.706;23.306;2023-04-06T02:59:36;94659.88;;;-2.13;82.63
43934;BME280;59081;42.706;23.306;2023-04-06T03:02:05;94804.13;;;-1.07;82.15
43934;BME280;59081;42.706;23.306;2023-04-06T03:04:32;94877.06;;;-0.73;82.02
43934;BME280;59081;42.706;23.306;2023-04-06T03:07:09;94937.72;;;-0.37;81.82
43934;BME280;59081;42.706;23.306;2023-04-06T03:09:42;94672.75;;;-1.99;81.81
43934;BME280;59081;42.706;23.306;2023-04-06T03:12:08;94877.19;;;-0.59;81.36
43934;BME280;59081;42.706;23.306;2023-04-06T03:15:03;94676.69;;;-1.90;81.14
43934;BME280;59081;42.706;23.306;2023-04-06T03:20:13;94611.22;;;-2.54;80.15
43934;BME280;59081;42.706;23.306;2023-04-06T03:22:44;94642.94;;;-2.43;80.42
43934;BME280;59081;42.706;23.306;2023-04-06T03:41:11;94844.50;;;-0.87;83.98
43934;BME280;59081;42.706;23.306;2023-04-06T03:43:43;94880.97;;;-0.71;84.26
43934;BME280;59081;42.706;23.306;2023-04-06T03:48:52;94643.94;;;-2.25;84.77
43934;BME280;59081;42.706;23.306;2023-04-06T03:51:37;94745.75;;;-1.52;85.44
43934;BME280;59081;42.706;23.306;2023-04-06T03:54:14;94787.75;;;-1.21;85.30
43934;BME280;59081;42.706;23.306;2023-04-06T03:56:48;94685.19;;;-1.88;85.01
43934;BME280;59081;42.706;23.306;2023-04-06T03:59:17;94629.13;;;-2.38;86.82
43934;BME280;59081;42.706;23.306;2023-04-06T04:01:54;94822.81;;;-1.28;87.95
43934;BME280;59081;42.706;23.306;2023-04-06T04:04:45;94774.66;;;-1.56;88.20
43934;BME280;59081;42.706;23.306;2023-04-06T04:07:25;94695.00;;;-2.06;87.19
43934;BME280;59081;42.706;23.306;2023-04-06T04:09:57;94646.50;;;-2.36;87.58
43934;BME280;59081;42.706;23.306;2023-04-06T04:12:41;94753.72;;;-1.66;88.20
43934;BME280;59081;42.706;23.306;2023-04-06T04:15:07;94599.38;;;-2.75;88.62
43934;BME280;59081;42.706;23.306;2023-04-06T04:17:42;94872.31;;;-0.87;89.25
43934;BME280;59081;42.706;23.306;2023-04-06T04:20:50;94897.31;;;-0.56;88.34
43934;BME280;59081;42.706;23.306;2023-04-06T04:23:24;94651.16;;;-2.33;88.54
43934;BME280;59081;42.706;23.306;2023-04-06T04:26:03;94850.81;;;-1.10;87.92
43934;BME280;59081;42.706;23.306;2023-04-06T04:28:34;94650.69;;;-2.38;88.24
43934;BME280;59081;42.706;23.306;2023-04-06T04:31:14;94814.03;;;-1.21;88.23
43934;BME280;59081;42.706;23.306;2023-04-06T04:33:47;94879.88;;;-0.62;86.08
43934;BME280;59081;42.706;23.306;2023-04-06T04:39:07;94932.66;;;-0.39;85.67
43934;BME280;59081;42.706;23.306;2023-04-06T04:41:33;94698.47;;;-2.09;86.11
43934;BME280;59081;42.706;23.306;2023-04-06T04:44:09;94805.91;;;-1.21;86.14
43934;BME280;59081;42.706;23.306;2023-04-06T04:46:41;94699.22;;;-1.75;85.18
43934;BME280;59081;42.706;23.306;2023-04-06T04:49:13;94697.69;;;-1.72;82.34
43934;BME280;59081;42.706;23.306;2023-04-06T04:52:07;94661.47;;;-2.08;82.80
43934;BME280;59081;42.706;23.306;2023-04-06T04:57:16;94651.03;;;-2.10;83.51
43934;BME280;59081;42.706;23.306;2023-04-06T05:02:32;94764.94;;;-1.27;84.91
43934;BME280;59081;42.706;23.306;2023-04-06T05:05:09;94675.16;;;-1.91;85.84
43934;BME280;59081;42.706;23.306;2023-04-06T05:08:18;94772.34;;;-1.17;84.45
43934;BME280;59081;42.706;23.306;2023-04-06T05:10:58;94648.53;;;-1.92;83.88
43934;BME280;59081;42.706;23.306;2023-04-06T05:13:41;94669.84;;;-1.43;82.09
43934;BME280;59081;42.706;23.306;2023-04-06T05:16:18;94868.34;;;-0.05;80.32
43934;BME280;59081;42.706;23.306;2023-04-06T05:18:45;94653.34;;;-1.71;79.45
43934;BME280;59081;42.706;23.306;2023-04-06T05:21:19;94806.13;;;-0.56;79.77
43934;BME280;59081;42.706;23.306;2023-04-06T05:23:53;94805.31;;;-0.60;79.86
43934;BME280;59081;42.706;23.306;2023-04-06T05:26:22;94654.56;;;-1.65;80.41
43934;BME280;59081;42.706;23.306;2023-04-06T05:28:53;94864.34;;;-0.25;80.93
43934;BME280;59081;42.706;23.306;2023-04-06T05:31:30;94784.88;;;-0.54;80.36
43934;BME280;59081;42.706;23.306;2023-04-06T05:33:59;94770.06;;;-0.71;81.39
43934;BME280;59081;42.706;23.306;2023-04-06T05:36:28;94656.28;;;-1.47;80.92
43934;BME280;59081;42.706;23.306;2023-04-06T05:39:03;94840.53;;;-0.53;82.61
43934;BME280;59081;42.706;23.306;2023-04-06T05:42:04;94930.41;;;0.18;81.85
43934;BME280;59081;42.706;23.306;2023-04-06T05:47:25;94628.38;;;-1.61;81.83
43934;BME280;59081;42.706;23.306;2023-04-06T05:50:13;94632.75;;;-1.46;80.53
43934;BME280;59081;42.706;23.306;2023-04-06T05:52:55;94596.47;;;-1.89;81.83
43934;BME280;59081;42.706;23.306;2023-04-06T05:55:22;94659.34;;;-1.48;81.56
43934;BME280;59081;42.706;23.306;2023-04-06T05:57:59;94602.28;;;-1.91;82.07
43934;BME280;59081;42.706;23.306;2023-04-06T06:00:25;94686.47;;;-0.17;100.00
43934;BME280;59081;42.706;23.306;2023-04-06T06:02:51;94833.25;;;4.18;100.00
43934;BME280;59081;42.706;23.306;2023-04-06T06:05:22;94761.06;;;2.20;72.99
43934;BME280;59081;42.706;23.306;2023-04-06T06:08:00;94864.22;;;1.06;79.14
43934;BME280;59081;42.706;23.306;2023-04-06T06:10:46;94647.59;;;-0.67;80.58
43934;BME280;59081;42.706;23.306;2023-04-06T06:13:24;94917.03;;;1.44;80.35
43934;BME280;59081;42.706;23.306;2023-04-06T06:16:16;94661.59;;;-0.55;79.79
43934;BME280;59081;42.706;23.306;2023-04-06T06:18:45;94732.19;;;-0.05;80.16
43934;BME280;59081;42.706;23.306;2023-04-06T06:21:16;94929.38;;;1.24;78.17
43934;BME280;59081;42.706;23.306;2023-04-06T06:23:55;94685.75;;;-0.11;78.11
43934;BME280;59081;42.706;23.306;2023-04-06T06:26:29;94785.81;;;0.44;77.92
43934;BME280;59081;42.706;23.306;2023-04-06T06:29:02;94920.94;;;1.50;78.09
43934;BME280;59081;42.706;23.306;2023-04-06T06:31:31;94756.41;;;0.53;77.44
43934;BME280;59081;42.706;23.306;2023-04-06T06:34:23;94737.75;;;0.27;77.41
43934;BME280;59081;42.706;23.306;2023-04-06T06:36:51;94759.13;;;0.57;76.99
43934;BME280;59081;42.706;23.306;2023-04-06T06:39:47;94924.03;;;1.59;76.76
43934;BME280;59081;42.706;23.306;2023-04-06T06:42:18;94758.69;;;0.41;75.93
43934;BME280;59081;42.706;23.306;2023-04-06T06:45:07;94910.41;;;1.24;77.28
43934;BME280;59081;42.706;23.306;2023-04-06T06:47:41;94762.53;;;0.36;77.19
43934;BME280;59081;42.706;23.306;2023-04-06T06:52:46;94652.25;;;-0.64;78.94
43934;BME280;59081;42.706;23.306;2023-04-06T06:55:25;94926.22;;;1.08;78.98
43934;BME280;59081;42.706;23.306;2023-04-06T06:57:54;94673.19;;;-0.51;79.52
43934;BME280;59081;42.706;23.306;2023-04-06T07:00:28;94805.94;;;0.47;79.24
43934;BME280;59081;42.706;23.306;2023-04-06T07:02:57;94657.03;;;-0.37;78.76
43934;BME280;59081;42.706;23.306;2023-04-06T07:05:28;94841.38;;;1.03;77.80
43934;BME280;59081;42.706;23.306;2023-04-06T07:07:58;94930.28;;;1.70;77.29
43934;BME280;59081;42.706;23.306;2023-04-06T07:10:26;94833.28;;;1.32;75.65
43934;BME280;59081;42.706;23.306;2023-04-06T07:13:11;94662.59;;;-0.01;75.66
43934;BME280;59081;42.706;23.306;2023-04-06T07:15:47;94756.06;;;0.65;76.07
43934;BME280;59081;42.706;23.306;2023-04-06T07:18:20;94805.69;;;0.94;75.44
43934;BME280;59081;42.706;23.306;2023-04-06T07:20:49;94657.03;;;-0.33;75.36
43934;BME280;59081;42.706;23.306;2023-04-06T07:26:33;94931.84;;;1.79;75.50
43934;BME280;59081;42.706;23.306;2023-04-06T07:29:15;94920.22;;;1.89;74.84
43934;BME280;59081;42.706;23.306;2023-04-06T07:31:44;94736.31;;;0.68;74.85
43934;BME280;59081;42.706;23.306;2023-04-06T07:34:16;94653.28;;;-0.11;75.25
43934;BME280;59081;42.706;23.306;2023-04-06T07:36:42;94683.19;;;0.28;75.51
43934;BME280;59081;42.706;23.306;2023-04-06T07:39:07;94652.19;;;0.22;73.90
43934;BME280;59081;42.706;23.306;2023-04-06T07:41:36;94865.09;;;1.53;74.22
43934;BME280;59081;42.706;23.306;2023-04-06T07:44:05;94856.97;;;1.49;74.33
43934;BME280;59081;42.706;23.306;2023-04-06T07:46:33;94784.84;;;1.20;73.36
43934;BME280;59081;42.706;23.306;2023-04-06T07:49:03;94629.31;;;0.02;72.91
43934;BME280;59081;42.706;23.306;2023-04-06T07:54:23;94914.38;;;2.22;80.92
43934;BME280;59081;42.706;23.306;2023-04-06T07:57:02;94748.78;;;1.26;72.35
43934;BME280;59081;42.706;23.306;2023-04-06T07:59:28;94766.63;;;1.52;71.95
43934;BME280;59081;42.706;23.306;2023-04-06T08:01:54;94685.19;;;1.24;70.30
43934;BME280;59081;42.706;23.306;2023-04-06T08:04:32;94850.34;;;2.14;70.64
43934;BME280;59081;42.706;23.306;2023-04-06T08:07:01;94837.78;;;2.63;69.94
43934;BME280;59081;42.706;23.306;2023-04-06T08:09:36;94642.47;;;1.63;67.02
43934;BME280;59081;42.706;23.306;2023-04-06T08:14:47;94924.25;;;3.87;63.41
43934;BME280;59081;42.706;23.306;2023-04-06T08:17:21;94800.28;;;3.09;63.51
43934;BME280;59081;42.706;23.306;2023-04-06T08:19:50;94850.81;;;3.03;63.75
43934;BME280;59081;42.706;23.306;2023-04-06T08:22:18;94738.47;;;2.30;63.71
43934;BME280;59081;42.706;23.306;2023-04-06T08:24:55;94852.97;;;3.40;62.97
43934;BME280;59081;42.706;23.306;2023-04-06T08:27:23;94667.91;;;2.12;63.56
43934;BME280;59081;42.706;23.306;2023-04-06T08:29:49;94797.78;;;3.29;62.68
43934;BME280;59081;42.706;23.306;2023-04-06T08:32:20;94729.94;;;3.01;62.12
43934;BME280;59081;42.706;23.306;2023-04-06T08:34:54;94658.50;;;2.93;60.74
43934;BME280;59081;42.706;23.306;2023-04-06T08:37:29;94793.03;;;3.92;60.28
43934;BME280;59081;42.706;23.306;2023-04-06T08:40:02;94658.44;;;2.97;60.35
43934;BME280;59081;42.706;23.306;2023-04-06T08:42:54;94914.47;;;4.41;60.04
43934;BME280;59081;42.706;23.306;2023-04-06T08:45:26;94901.25;;;4.36;60.92
43934;BME280;59081;42.706;23.306;2023-04-06T08:47:52;94667.75;;;2.99;60.71
43934;BME280;59081;42.706;23.306;2023-04-06T08:50:22;94704.94;;;3.17;60.09
43934;BME280;59081;42.706;23.306;2023-04-06T08:52:49;94684.44;;;3.08;59.72
43934;BME280;59081;42.706;23.306;2023-04-06T08:55:22;94790.50;;;3.67;64.43
43934;BME280;59081;42.706;23.306;2023-04-06T08:57:48;94928.34;;;4.58;59.87
43934;BME280;59081;42.706;23.306;2023-04-06T09:00:18;94649.63;;;2.82;59.77
43934;BME280;59081;42.706;23.306;2023-04-06T09:02:49;94665.91;;;3.34;60.15
43934;BME280;59081;42.706;23.306;2023-04-06T09:08:00;94683.91;;;4.03;56.01
43934;BME280;59081;42.706;23.306;2023-04-06T09:10:26;94695.72;;;4.23;56.93
43934;BME280;59081;42.706;23.306;2023-04-06T09:13:03;94851.91;;;5.25;56.51
43934;BME280;59081;42.706;23.306;2023-04-06T09:15:29;94906.41;;;5.93;55.72
43934;BME280;59081;42.706;23.306;2023-04-06T09:18:01;94812.41;;;5.03;55.15
43934;BME280;59081;42.706;23.306;2023-04-06T09:20:27;94853.19;;;5.48;55.56
43934;BME280;59081;42.706;23.306;2023-04-06T09:23:02;94632.28;;;3.89;56.42
43934;BME280;59081;42.706;23.306;2023-04-06T09:25:33;94795.75;;;5.24;55.58
43934;BME280;59081;42.706;23.306;2023-04-06T09:28:01;94771.03;;;5.08;54.81
43934;BME280;59081;42.706;23.306;2023-04-06T09:30:32;94858.72;;;5.71;54.55
43934;BME280;59081;42.706;23.306;2023-04-06T09:32:58;94779.53;;;5.14;54.79
43934;BME280;59081;42.706;23.306;2023-04-06T09:35:24;94770.03;;;5.72;53.87
43934;BME280;59081;42.706;23.306;2023-04-06T09:37:55;94669.69;;;5.30;52.61
43934;BME280;59081;42.706;23.306;2023-04-06T09:40:21;94660.25;;;4.84;51.95
43934;BME280;59081;42.706;23.306;2023-04-06T09:42:48;94658.19;;;4.65;52.72
43934;BME280;59081;42.706;23.306;2023-04-06T09:45:18;94659.88;;;4.55;53.15
43934;BME280;59081;42.706;23.306;2023-04-06T09:47:45;94831.09;;;5.62;53.30
43934;BME280;59081;42.706;23.306;2023-04-06T09:50:12;94805.00;;;5.34;54.73
43934;BME280;59081;42.706;23.306;2023-04-06T09:52:46;94681.50;;;4.69;54.29
43934;BME280;59081;42.706;23.306;2023-04-06T09:55:39;94819.88;;;5.30;54.14
43934;BME280;59081;42.706;23.306;2023-04-06T09:58:07;94665.25;;;4.32;55.06
43934;BME280;59081;42.706;23.306;2023-04-06T10:00:47;94696.44;;;4.31;55.19
43934;BME280;59081;42.706;23.306;2023-04-06T10:06:06;94762.16;;;4.70;55.46
43934;BME280;59081;42.706;23.306;2023-04-06T10:08:38;94607.03;;;3.84;53.48
43934;BME280;59081;42.706;23.306;2023-04-06T10:11:08;94765.91;;;4.83;53.17
43934;BME280;59081;42.706;23.306;2023-04-06T10:13:35;94762.72;;;4.58;53.44
43934;BME280;59081;42.706;23.306;2023-04-06T10:16:06;94618.66;;;3.13;55.29
43934;BME280;59081;42.706;23.306;2023-04-06T10:18:33;94887.66;;;4.70;56.90
43934;BME280;59081;42.706;23.306;2023-04-06T10:21:06;94715.50;;;3.97;55.73
43934;BME280;59081;42.706;23.306;2023-04-06T10:23:46;94799.59;;;4.70;55.39
43934;BME280;59081;42.706;23.306;2023-04-06T10:26:15;94619.38;;;3.62;54.22
43934;BME280;59081;42.706;23.306;2023-04-06T10:28:43;94833.25;;;5.20;54.16
43934;BME280;59081;42.706;23.306;2023-04-06T10:31:11;94715.72;;;4.47;52.28
43934;BME280;59081;42.706;23.306;2023-04-06T10:33:37;94688.72;;;4.22;52.57
43934;BME280;59081;42.706;23.306;2023-04-06T10:36:14;94761.16;;;4.87;53.71
43934;BME280;59081;42.706;23.306;2023-04-06T10:38:41;94637.84;;;4.12;53.60
43934;BME280;59081;42.706;23.306;2023-04-06T10:41:09;94754.44;;;5.22;52.42
43934;BME280;59081;42.706;23.306;2023-04-06T10:43:37;94624.94;;;4.46;52.11
43934;BME280;59081;42.706;23.306;2023-04-06T10:46:08;94642.19;;;4.67;52.42
43934;BME280;59081;42.706;23.306;2023-04-06T10:48:46;94876.41;;;6.13;52.29
43934;BME280;59081;42.706;23.306;2023-04-06T10:51:28;94636.94;;;4.22;52.67
43934;BME280;59081;42.706;23.306;2023-04-06T10:54:00;94713.19;;;4.60;52.56
43934;BME280;59081;42.706;23.306;2023-04-06T10:56:29;94868.53;;;6.19;50.71
43934;BME280;59081;42.706;23.306;2023-04-06T10:58:57;94639.34;;;5.47;50.19
43934;BME280;59081;42.706;23.306;2023-04-06T11:01:26;94631.50;;;5.26;49.81
43934;BME280;59081;42.706;23.306;2023-04-06T11:03:56;94749.19;;;5.82;50.39
43934;BME280;59081;42.706;23.306;2023-04-06T11:06:29;94651.22;;;5.14;49.89
43934;BME280;59081;42.706;23.306;2023-04-06T11:08:57;94773.16;;;6.21;49.59
43934;BME280;59081;42.706;23.306;2023-04-06T11:11:25;94799.66;;;6.24;48.81
43934;BME280;59081;42.706;23.306;2023-04-06T11:13:59;94626.38;;;4.81;49.67
43934;BME280;59081;42.706;23.306;2023-04-06T11:16:31;94609.22;;;4.27;50.42
43934;BME280;59081;42.706;23.306;2023-04-06T11:19:01;94599.47;;;4.57;51.31
43934;BME280;59081;42.706;23.306;2023-04-06T11:21:39;94591.06;;;4.44;50.99
43934;BME280;59081;42.706;23.306;2023-04-06T11:26:43;94590.06;;;5.08;49.11
43934;BME280;59081;42.706;23.306;2023-04-06T11:29:11;94620.03;;;5.11;49.46
43934;BME280;59081;42.706;23.306;2023-04-06T11:31:41;94849.78;;;6.60;49.09
43934;BME280;59081;42.706;23.306;2023-04-06T11:34:11;94850.03;;;6.70;49.12
43934;BME280;59081;42.706;23.306;2023-04-06T11:36:46;94746.31;;;5.92;49.72
43934;BME280;59081;42.706;23.306;2023-04-06T11:39:22;94608.34;;;5.34;49.69
43934;BME280;59081;42.706;23.306;2023-04-06T11:42:02;94550.50;;;4.73;49.48
43934;BME280;59081;42.706;23.306;2023-04-06T11:44:42;94821.09;;;6.49;49.77
43934;BME280;59081;42.706;23.306;2023-04-06T11:47:14;94783.69;;;6.42;49.75
43934;BME280;59081;42.706;23.306;2023-04-06T11:49:41;94813.53;;;6.76;49.77
43934;BME280;59081;42.706;23.306;2023-04-06T11:52:28;94823.28;;;6.97;49.14
43934;BME280;59081;42.706;23.306;2023-04-06T11:54:55;94636.59;;;5.90;49.02
43934;BME280;59081;42.706;23.306;2023-04-06T11:57:22;94679.09;;;6.15;48.95
43934;BME280;59081;42.706;23.306;2023-04-06T11:59:51;94711.56;;;6.13;49.06
43934;BME280;59081;42.706;23.306;2023-04-06T12:02:20;94808.81;;;6.77;49.14
43934;BME280;59081;42.706;23.306;2023-04-06T12:04:46;94562.19;;;4.73;50.42
43934;BME280;59081;42.706;23.306;2023-04-06T12:07:11;94671.69;;;5.25;51.20
43934;BME280;59081;42.706;23.306;2023-04-06T12:09:37;94598.72;;;4.79;50.96
43934;BME280;59081;42.706;23.306;2023-04-06T12:12:04;94760.09;;;5.85;51.38
43934;BME280;59081;42.706;23.306;2023-04-06T12:14:33;94572.31;;;4.49;50.56
43934;BME280;59081;42.706;23.306;2023-04-06T12:16:59;94592.69;;;4.92;51.55
43934;BME280;59081;42.706;23.306;2023-04-06T12:19:33;94817.34;;;6.19;50.67
43934;BME280;59081;42.706;23.306;2023-04-06T12:22:08;94704.59;;;5.65;50.57
43934;BME280;59081;42.706;23.306;2023-04-06T12:27:36;94541.81;;;4.54;49.57
43934;BME280;59081;42.706;23.306;2023-04-06T12:30:11;94575.69;;;4.57;49.54
43934;BME280;59081;42.706;23.306;2023-04-06T12:32:39;94775.06;;;6.01;49.33
43934;BME280;59081;42.706;23.306;2023-04-06T12:35:09;94805.00;;;6.31;50.03
43934;BME280;59081;42.706;23.306;2023-04-06T12:37:41;94738.50;;;5.68;49.87
43934;BME280;59081;42.706;23.306;2023-04-06T12:40:11;94811.50;;;6.17;50.17
43934;BME280;59081;42.706;23.306;2023-04-06T12:42:38;94548.66;;;4.39;49.78
43934;BME280;59081;42.706;23.306;2023-04-06T12:45:18;94509.31;;;3.87;50.27
43934;BME280;59081;42.706;23.306;2023-04-06T12:47:47;94752.75;;;5.55;51.56
43934;BME280;59081;42.706;23.306;2023-04-06T12:50:18;94673.22;;;5.27;51.18
43934;BME280;59081;42.706;23.306;2023-04-06T12:52:50;94804.59;;;6.09;51.15
43934;BME280;59081;42.706;23.306;2023-04-06T12:55:18;94701.75;;;5.49;51.02
43934;BME280;59081;42.706;23.306;2023-04-06T12:57:48;94532.25;;;4.43;50.82
43934;BME280;59081;42.706;23.306;2023-04-06T13:00:17;94549.50;;;4.36;50.93
43934;BME280;59081;42.706;23.306;2023-04-06T13:02:49;94752.56;;;5.43;51.38
43934;BME280;59081;42.706;23.306;2023-04-06T13:05:16;94782.25;;;5.91;51.58
43934;BME280;59081;42.706;23.306;2023-04-06T13:07:50;94627.38;;;4.91;51.65
43934;BME280;59081;42.706;23.306;2023-04-06T13:12:58;94632.13;;;4.87;51.30
43934;BME280;59081;42.706;23.306;2023-04-06T13:15:27;94562.44;;;4.32;51.16
43934;BME280;59081;42.706;23.306;2023-04-06T13:18:09;94722.06;;;5.48;51.67
43934;BME280;59081;42.706;23.306;2023-04-06T13:20:45;94528.31;;;4.20;51.10
43934;BME280;59081;42.706;23.306;2023-04-06T13:23:12;94544.94;;;4.30;52.21
43934;BME280;59081;42.706;23.306;2023-04-06T13:25:41;94535.81;;;4.13;50.85
43934;BME280;59081;42.706;23.306;2023-04-06T13:28:27;94516.34;;;4.14;51.53
43934;BME280;59081;42.706;23.306;2023-04-06T13:31:11;94530.22;;;3.97;50.68
43934;BME280;59081;42.706;23.306;2023-04-06T13:33:42;94542.75;;;4.17;50.29
43934;BME280;59081;42.706;23.306;2023-04-06T13:36:11;94622.56;;;4.75;49.54
43934;BME280;59081;42.706;23.306;2023-04-06T13:38:39;94696.44;;;5.38;49.14
43934;BME280;59081;42.706;23.306;2023-04-06T13:41:07;94515.91;;;4.16;48.44
43934;BME280;59081;42.706;23.306;2023-04-06T13:43:35;94788.56;;;5.61;48.62
43934;BME280;59081;42.706;23.306;2023-04-06T13:46:10;94541.34;;;3.79;47.82
43934;BME280;59081;42.706;23.306;2023-04-06T13:48:35;94775.19;;;5.43;48.97
43934;BME280;59081;42.706;23.306;2023-04-06T13:51:12;94782.94;;;5.48;49.16
43934;BME280;59081;42.706;23.306;2023-04-06T13:53:53;94607.56;;;4.33;49.17
43934;BME280;59081;42.706;23.306;2023-04-06T13:56:27;94520.41;;;3.72;49.87
43934;BME280;59081;42.706;23.306;2023-04-06T13:59:10;94519.03;;;3.27;49.95
43934;BME280;59081;42.706;23.306;2023-04-06T14:01:48;94765.25;;;5.30;49.75
43934;BME280;59081;42.706;23.306;2023-04-06T14:04:30;94618.84;;;4.35;48.46
43934;BME280;59081;42.706;23.306;2023-04-06T14:07:07;94657.19;;;4.51;47.84
43934;BME280;59081;42.706;23.306;2023-04-06T14:09:44;94617.78;;;4.29;48.38
43934;BME280;59081;42.706;23.306;2023-04-06T14:12:15;94522.84;;;3.29;48.55
43934;BME280;59081;42.706;23.306;2023-04-06T14:15:07;94696.19;;;4.79;49.78
43934;BME280;59081;42.706;23.306;2023-04-06T14:17:36;94498.09;;;3.50;50.07
43934;BME280;59081;42.706;23.306;2023-04-06T14:20:12;94709.53;;;5.00;48.66
43934;BME280;59081;42.706;23.306;2023-04-06T14:22:44;94517.56;;;3.49;48.05
43934;BME280;59081;42.706;23.306;2023-04-06T14:25:10;94622.00;;;4.03;48.65
43934;BME280;59081;42.706;23.306;2023-04-06T14:27:43;94518.44;;;3.42;49.54
43934;BME280;59081;42.706;23.306;2023-04-06T14:30:15;94774.81;;;5.18;50.14
43934;BME280;59081;42.706;23.306;2023-04-06T14:32:43;94771.09;;;5.32;50.93
43934;BME280;59081;42.706;23.306;2023-04-06T14:35:17;94517.28;;;3.43;51.66
43934;BME280;59081;42.706;23.306;2023-04-06T14:37:51;94544.72;;;3.56;52.27
43934;BME280;59081;42.706;23.306;2023-04-06T14:40:20;94718.69;;;4.86;51.69
43934;BME280;59081;42.706;23.306;2023-04-06T14:42:48;94619.97;;;4.11;51.47
43934;BME280;59081;42.706;23.306;2023-04-06T14:45:19;94773.59;;;4.92;52.92
43934;BME280;59081;42.706;23.306;2023-04-06T14:47:57;94503.31;;;3.04;53.82
43934;BME280;59081;42.706;23.306;2023-04-06T14:50:31;94513.28;;;3.18;54.07